createdAt,value
2019-06-10T00:01:42.839Z,66.00
2019-06-10T00:04:12.890Z,66.80
2019-06-10T00:07:04.223Z,68.40
2019-06-10T00:09:35.715Z,68.40
2019-06-10T00:12:06.398Z,68.30
2019-06-10T00:14:38.460Z,68.40
2019-06-10T00:17:11.006Z,68.00
2019-06-10T00:19:41.207Z,68.50
2019-06-10T00:22:11.846Z,68.10
2019-06-10T00:24:42.166Z,67.90
2019-06-10T00:27:12.203Z,68.10
2019-06-10T00:29:42.407Z,68.40
2019-06-10T00:32:13.302Z,68.30
2019-06-10T00:34:43.711Z,69.00
2019-06-10T00:37:14.802Z,69.10
2019-06-10T00:39:45.004Z,68.30
2019-06-10T00:42:15.527Z,68.90
2019-06-10T00:44:45.806Z,67.80
2019-06-10T00:47:15.814Z,67.70
2019-06-10T00:49:45.879Z,68.00
2019-06-10T00:52:15.894Z,69.10
2019-06-10T00:54:46.071Z,69.60
2019-06-10T00:57:16.083Z,70.00
2019-06-10T00:59:46.136Z,70.70
2019-06-10T01:02:16.188Z,71.10
2019-06-10T01:04:47.488Z,71.50
2019-06-10T01:07:18.687Z,71.30
2019-06-10T01:09:48.807Z,72.30
2019-06-10T01:12:20.979Z,71.80
2019-06-10T01:14:51.673Z,72.10
2019-06-10T01:17:22.071Z,73.30
2019-06-10T01:19:52.808Z,73.00
2019-06-10T01:22:22.858Z,72.10
2019-06-10T01:24:52.975Z,71.50
2019-06-10T01:27:23.027Z,71.30
2019-06-10T01:29:54.182Z,71.30
2019-06-10T01:32:24.259Z,71.10
2019-06-10T01:34:54.276Z,71.80
2019-06-10T01:37:24.341Z,71.80
2019-06-10T01:39:54.394Z,71.80
2019-06-10T01:42:24.617Z,72.20
2019-06-10T01:44:54.792Z,72.30
2019-06-10T01:47:24.817Z,71.60
2019-06-10T01:49:54.938Z,72.50
2019-06-10T01:52:25.031Z,72.50
2019-06-10T01:54:55.226Z,72.60
2019-06-10T01:57:25.187Z,72.20
2019-06-10T01:59:55.242Z,72.60
2019-06-10T02:02:25.867Z,72.50
2019-06-10T02:04:56.007Z,72.40
2019-06-10T02:07:26.163Z,73.00
2019-06-10T02:09:56.230Z,73.40
2019-06-10T02:12:26.425Z,73.80
2019-06-10T02:14:56.588Z,74.30
2019-06-10T02:17:26.730Z,74.90
2019-06-10T02:19:56.734Z,74.80
2019-06-10T02:22:28.688Z,74.60
2019-06-10T02:25:01.102Z,75.10
2019-06-10T02:27:31.513Z,75.60
2019-06-10T02:30:13.603Z,75.00
2019-06-10T02:32:37.772Z,75.30
2019-06-10T02:35:14.409Z,75.30
2019-06-10T02:37:38.668Z,75.20
2019-06-10T02:40:09.155Z,75.40
2019-06-10T02:42:43.627Z,75.20
2019-06-10T02:45:17.314Z,75.80
2019-06-10T02:47:44.729Z,75.60
2019-06-10T02:50:20.932Z,75.60
2019-06-10T02:52:47.060Z,75.90
2019-06-10T02:55:19.650Z,76.00
2019-06-10T02:57:49.150Z,76.60
2019-06-10T03:00:29.155Z,76.40
2019-06-10T03:02:53.066Z,76.30
2019-06-10T03:05:29.879Z,76.20
2019-06-10T03:07:54.429Z,75.90
2019-06-10T03:10:30.023Z,76.60
2019-06-10T03:12:56.131Z,77.10
2019-06-10T03:15:26.743Z,76.80
2019-06-10T03:17:57.459Z,77.20
2019-06-10T03:20:28.397Z,76.80
2019-06-10T03:22:58.510Z,77.40
2019-06-10T03:25:28.395Z,77.90
2019-06-10T03:28:00.020Z,77.90
2019-06-10T03:30:44.245Z,76.90
2019-06-10T03:33:04.880Z,77.40
2019-06-10T03:35:33.643Z,77.30
2019-06-10T03:38:03.715Z,77.80
2019-06-10T03:40:33.842Z,76.80
2019-06-10T03:43:03.937Z,76.50
2019-06-10T03:45:34.100Z,77.00
2019-06-10T03:48:04.423Z,76.80
2019-06-10T03:50:34.542Z,76.50
2019-06-10T03:53:04.710Z,76.40
2019-06-10T03:55:34.787Z,76.40
2019-06-10T03:58:04.911Z,76.60
2019-06-10T04:00:37.027Z,76.30
2019-06-10T04:03:06.903Z,76.60
2019-06-10T04:05:37.024Z,76.60
2019-06-10T04:08:07.040Z,76.50
2019-06-10T04:10:37.092Z,76.60
2019-06-10T04:13:07.111Z,76.70
2019-06-10T04:15:37.176Z,76.80
2019-06-10T04:18:07.280Z,76.80
2019-06-10T04:20:37.427Z,76.50
2019-06-10T04:23:07.479Z,77.20
2019-06-10T04:25:42.595Z,76.10
2019-06-10T04:28:12.598Z,76.60
2019-06-10T04:30:43.292Z,76.60
2019-06-10T04:33:13.451Z,77.30
2019-06-10T04:35:43.486Z,76.80
2019-06-10T04:38:13.639Z,77.00
2019-06-10T04:40:43.886Z,76.50
2019-06-10T04:43:13.935Z,76.80
2019-06-10T04:45:44.063Z,77.10
2019-06-10T04:48:14.083Z,77.00
2019-06-10T04:50:46.440Z,77.00
2019-06-10T04:53:15.859Z,76.50
2019-06-10T04:55:46.191Z,76.30
2019-06-10T04:58:16.215Z,76.80
2019-06-10T05:00:46.359Z,76.40
2019-06-10T05:03:16.311Z,77.00
2019-06-10T05:05:46.518Z,76.10
2019-06-10T05:08:16.571Z,76.00
2019-06-10T05:10:46.603Z,75.20
2019-06-10T05:13:16.887Z,74.60
2019-06-10T05:15:46.971Z,73.90
2019-06-10T05:18:17.791Z,74.10
2019-06-10T05:20:57.726Z,75.30
2019-06-10T05:23:19.668Z,75.40
2019-06-10T05:25:52.406Z,75.90
2019-06-10T05:28:25.449Z,75.90
2019-06-10T05:30:54.726Z,76.30
2019-06-10T05:33:26.024Z,75.90
2019-06-10T05:35:56.847Z,75.80
2019-06-10T05:38:28.754Z,75.60
2019-06-10T05:40:58.609Z,76.20
2019-06-10T05:43:29.674Z,76.90
2019-06-10T05:46:02.587Z,76.90
2019-06-10T05:48:33.703Z,76.90
2019-06-10T05:51:06.706Z,77.50
2019-06-10T05:53:35.529Z,77.20
2019-06-10T05:56:05.762Z,76.30
2019-06-10T05:58:36.086Z,77.10
2019-06-10T06:01:06.483Z,77.30
2019-06-10T06:03:37.124Z,77.00
2019-06-10T06:06:07.570Z,74.50
2019-06-10T06:08:38.899Z,75.50
2019-06-10T06:11:09.027Z,75.00
2019-06-10T06:13:40.055Z,74.80
2019-06-10T06:16:29.909Z,74.90
2019-06-10T06:19:03.076Z,75.50
2019-06-10T06:21:40.256Z,74.50
2019-06-10T06:24:04.761Z,73.40
2019-06-10T06:26:37.982Z,72.80
2019-06-10T06:29:06.516Z,72.80
2019-06-10T06:31:37.695Z,72.80
2019-06-10T06:34:07.821Z,72.20
2019-06-10T06:36:38.305Z,72.10
2019-06-10T06:41:52.860Z,72.30
2019-06-10T06:44:23.474Z,71.20
2019-06-10T06:46:53.895Z,71.00
2019-06-10T06:49:23.887Z,71.90
2019-06-10T06:51:58.861Z,72.40
2019-06-10T06:54:25.636Z,72.50
2019-06-10T06:57:09.851Z,72.70
2019-06-10T06:59:43.256Z,72.70
2019-06-10T07:02:13.616Z,71.30
2019-06-10T07:04:44.463Z,70.50
2019-06-10T07:07:15.900Z,70.30
2019-06-10T07:09:49.198Z,70.00
2019-06-10T07:12:22.986Z,70.60
2019-06-10T07:17:37.390Z,69.60
2019-06-10T07:20:08.506Z,68.70
2019-06-10T07:22:40.107Z,67.80
2019-06-10T07:25:12.374Z,67.80
2019-06-10T07:27:45.122Z,68.20
2019-06-10T07:30:15.176Z,66.70
2019-06-10T07:32:47.233Z,66.80
2019-06-10T07:35:17.167Z,67.00
2019-06-10T07:37:47.255Z,67.30
2019-06-10T07:40:17.448Z,66.70
2019-06-10T07:42:47.431Z,66.20
2019-06-10T07:45:17.648Z,65.80
2019-06-10T07:47:47.822Z,65.90
2019-06-10T07:50:18.434Z,66.50
2019-06-10T07:52:48.423Z,66.50
2019-06-10T07:55:19.016Z,66.70
2019-06-10T07:57:49.207Z,65.30
2019-06-10T08:00:34.878Z,65.30
2019-06-10T08:03:05.146Z,64.70
2019-06-10T08:05:36.040Z,63.90
2019-06-10T08:08:06.183Z,63.80
2019-06-10T08:10:37.035Z,63.40
2019-06-10T08:13:07.443Z,64.50
2019-06-10T08:15:37.583Z,64.50
2019-06-10T08:18:07.683Z,64.20
2019-06-10T08:20:48.560Z,64.50
2019-06-10T08:23:24.438Z,65.40
2019-06-10T08:25:57.630Z,64.30
2019-06-10T08:28:26.149Z,65.40
2019-06-10T08:30:56.235Z,64.60
2019-06-10T08:33:26.277Z,64.90
2019-06-10T08:36:00.436Z,64.60
2019-06-10T08:38:28.164Z,62.50
2019-06-10T08:40:58.285Z,64.00
2019-06-10T08:43:28.375Z,64.20
2019-06-10T08:45:58.508Z,63.40
2019-06-10T08:48:28.550Z,62.80
2019-06-10T08:50:58.658Z,62.80
2019-06-10T08:53:43.903Z,62.30
2019-06-10T08:56:13.609Z,62.40
2019-06-10T08:58:46.371Z,62.00
2019-06-10T09:01:15.301Z,61.60
2019-06-10T09:06:23.240Z,60.00
2019-06-10T09:08:54.780Z,59.90
2019-06-10T09:11:24.816Z,59.80
2019-06-10T09:13:55.803Z,58.80
2019-06-10T09:16:26.159Z,58.80
2019-06-10T09:18:56.546Z,57.30
2019-06-10T09:21:26.647Z,57.10
2019-06-10T09:24:00.014Z,57.90
2019-06-10T09:26:28.487Z,57.50
2019-06-10T09:28:58.499Z,56.50
2019-06-10T09:31:28.725Z,56.30
2019-06-10T09:33:58.734Z,57.00
2019-06-10T09:36:28.891Z,56.90
2019-06-10T09:38:59.035Z,56.00
2019-06-10T09:41:39.353Z,56.30
2019-06-10T09:44:03.303Z,56.60
2019-06-10T09:46:34.623Z,57.10
2019-06-10T09:49:05.558Z,56.40
2019-06-10T09:51:43.143Z,56.30
2019-06-10T09:54:12.602Z,55.30
2019-06-10T09:56:47.251Z,54.10
2019-06-10T09:59:16.311Z,51.90
2019-06-10T10:01:49.037Z,51.30
2019-06-10T10:04:18.083Z,50.00
2019-06-10T10:07:03.117Z,50.50
2019-06-10T10:09:36.958Z,50.50
2019-06-10T10:12:05.947Z,50.00
2019-06-10T10:14:36.030Z,50.30
2019-06-10T10:17:06.111Z,50.80
2019-06-10T10:19:38.189Z,50.70
2019-06-10T10:22:11.052Z,49.80
2019-06-10T10:24:42.480Z,50.30
2019-06-10T10:27:13.409Z,50.20
2019-06-10T10:29:46.910Z,49.90
2019-06-10T10:32:15.467Z,48.70
2019-06-10T10:34:50.263Z,49.70
2019-06-10T10:37:22.963Z,50.80
2019-06-10T10:39:54.488Z,51.50
2019-06-10T10:42:24.295Z,52.10
2019-06-10T10:44:58.863Z,52.20
2019-06-10T10:47:27.670Z,52.10
2019-06-10T10:49:58.002Z,52.00
2019-06-10T10:52:28.134Z,52.10
2019-06-10T10:54:58.175Z,52.00
2019-06-10T10:57:47.574Z,52.70
2019-06-10T11:00:22.610Z,52.30
2019-06-10T11:02:54.048Z,52.90
2019-06-10T11:05:36.111Z,53.00
2019-06-10T11:08:08.286Z,52.40
2019-06-10T11:10:38.482Z,52.40
2019-06-10T11:13:10.268Z,52.90
2019-06-10T11:15:40.460Z,53.40
2019-06-10T11:18:14.778Z,54.20
2019-06-10T11:20:45.336Z,54.00
2019-06-10T11:23:16.089Z,54.20
2019-06-10T11:25:47.792Z,54.20
2019-06-10T11:28:18.143Z,54.90
2019-06-10T11:30:49.591Z,55.50
2019-06-10T11:33:22.749Z,54.90
2019-06-10T11:35:55.296Z,54.60
2019-06-10T11:38:25.175Z,54.60
2019-06-10T11:40:58.547Z,54.10
2019-06-10T11:43:27.708Z,53.20
2019-06-10T11:46:03.448Z,53.90
2019-06-10T11:48:32.801Z,53.60
2019-06-10T11:51:04.674Z,53.70
2019-06-10T11:53:35.054Z,54.00
2019-06-10T11:56:06.523Z,54.10
2019-06-10T11:58:36.599Z,53.40
2019-06-10T12:01:12.180Z,52.30
2019-06-10T12:03:43.039Z,51.60
2019-06-10T12:06:14.638Z,52.30
2019-06-10T12:08:45.185Z,50.80
2019-06-10T12:11:15.215Z,50.50
2019-06-10T12:13:45.762Z,50.60
2019-06-10T12:17:15.664Z,50.30
2019-06-10T12:18:49.122Z,49.70
2019-06-10T12:21:19.132Z,49.30
2019-06-10T12:23:49.727Z,49.20
2019-06-10T12:26:19.887Z,50.00
2019-06-10T12:29:01.741Z,50.90
2019-06-10T12:31:38.415Z,51.60
2019-06-10T12:34:12.339Z,50.90
2019-06-10T12:36:41.789Z,49.60
2019-06-10T12:39:17.131Z,49.40
2019-06-10T12:41:46.426Z,49.60
2019-06-10T12:44:19.477Z,49.60
2019-06-10T12:46:53.307Z,49.30
2019-06-10T12:49:22.539Z,50.50
2019-06-10T12:51:54.206Z,51.00
2019-06-10T12:54:24.369Z,51.00
2019-06-10T12:56:55.307Z,51.30
2019-06-10T12:59:26.293Z,51.00
2019-06-10T13:01:58.063Z,51.70
2019-06-10T13:04:28.309Z,52.00
2019-06-10T13:07:02.441Z,51.90
2019-06-10T13:09:32.711Z,52.40
2019-06-10T13:12:04.059Z,52.80
2019-06-10T13:14:34.326Z,52.30
2019-06-10T13:17:05.803Z,51.70
2019-06-10T13:19:35.952Z,52.40
2019-06-10T13:22:07.569Z,51.90
2019-06-10T13:24:38.441Z,51.80
2019-06-10T13:27:08.597Z,51.50
2019-06-10T13:29:43.638Z,51.20
2019-06-10T13:32:13.551Z,51.10
2019-06-10T13:34:49.859Z,50.70
2019-06-10T13:37:19.906Z,50.80
2019-06-10T13:39:52.303Z,50.40
2019-06-10T13:42:22.782Z,50.60
2019-06-10T13:44:53.055Z,50.90
2019-06-10T13:47:26.102Z,51.20
2019-06-10T13:49:55.041Z,51.50
2019-06-10T13:52:28.717Z,51.60
2019-06-10T13:54:58.744Z,51.40
2019-06-10T13:57:28.784Z,51.90
2019-06-10T13:59:59.283Z,52.20
2019-06-10T14:02:29.448Z,52.30
2019-06-10T14:05:02.525Z,52.10
2019-06-10T14:07:32.481Z,53.00
2019-06-10T14:10:04.015Z,52.10
2019-06-10T14:12:39.718Z,51.50
2019-06-10T14:15:12.117Z,51.40
2019-06-10T14:17:42.229Z,50.90
2019-06-10T14:20:15.286Z,51.00
2019-06-10T14:22:44.850Z,50.10
2019-06-10T14:25:16.895Z,50.00
2019-06-10T14:27:46.701Z,50.60
2019-06-10T14:30:17.012Z,50.20
2019-06-10T14:32:47.205Z,50.30
2019-06-10T14:35:17.889Z,50.60
2019-06-10T14:37:47.892Z,50.30
2019-06-10T14:40:20.916Z,50.00
2019-06-10T14:42:52.346Z,49.90
2019-06-10T14:45:23.150Z,50.40
2019-06-10T14:47:55.483Z,50.50
2019-06-10T14:50:25.757Z,50.40
2019-06-10T14:52:55.955Z,51.00
2019-06-10T14:55:26.178Z,49.90
2019-06-10T14:57:56.200Z,50.20
2019-06-10T15:00:26.549Z,50.10
2019-06-10T15:02:56.785Z,50.60
2019-06-10T15:05:26.833Z,50.60
2019-06-10T15:07:56.926Z,50.00
2019-06-10T15:10:26.986Z,50.50
2019-06-10T15:12:57.031Z,51.30
2019-06-10T15:15:27.405Z,50.00
2019-06-10T15:17:58.030Z,50.80
2019-06-10T15:20:28.325Z,51.00
2019-06-10T15:22:58.462Z,51.10
2019-06-10T15:25:28.573Z,50.90
2019-06-10T15:27:59.595Z,51.50
2019-06-10T15:30:32.005Z,51.40
2019-06-10T15:33:03.029Z,51.40
2019-06-10T15:35:34.315Z,51.40
2019-06-10T15:38:04.554Z,51.30
2019-06-10T15:40:34.718Z,51.00
2019-06-10T15:43:06.332Z,50.40
2019-06-10T15:45:36.583Z,50.60
2019-06-10T15:48:10.169Z,51.30
2019-06-10T15:50:42.840Z,51.60
2019-06-10T15:53:15.452Z,51.40
2019-06-10T15:56:08.903Z,51.40
2019-06-10T15:58:17.393Z,51.00
2019-06-10T16:00:49.120Z,51.20
2019-06-10T16:03:20.540Z,51.60
2019-06-10T16:05:52.756Z,51.60
2019-06-10T16:08:22.794Z,51.20
2019-06-10T16:10:52.929Z,50.60
2019-06-10T16:13:25.574Z,50.00
2019-06-10T16:15:55.015Z,49.50
2019-06-10T16:18:27.515Z,48.70
2019-06-10T16:20:56.802Z,49.20
2019-06-10T16:23:27.040Z,49.20
2019-06-10T16:25:57.027Z,49.50
2019-06-10T16:28:27.085Z,49.70
2019-06-10T16:30:57.216Z,50.40
2019-06-10T16:33:27.919Z,51.30
2019-06-10T16:35:58.206Z,51.70
2019-06-10T16:38:28.362Z,51.90
2019-06-10T16:40:58.379Z,52.00
2019-06-10T16:43:28.398Z,52.10
2019-06-10T16:45:58.514Z,52.00
2019-06-10T16:48:29.718Z,52.10
2019-06-10T16:51:02.981Z,52.00
2019-06-10T16:53:35.208Z,51.30
2019-06-10T16:56:03.774Z,52.30
2019-06-10T16:58:33.913Z,53.00
2019-06-10T17:01:12.466Z,53.60
2019-06-10T17:03:42.591Z,53.50
2019-06-10T17:06:14.366Z,53.60
2019-06-10T17:08:44.421Z,53.90
2019-06-10T17:11:14.667Z,54.00
2019-06-10T17:13:46.155Z,53.90
2019-06-10T17:16:16.284Z,54.00
2019-06-10T17:18:47.555Z,54.30
2019-06-10T17:21:19.412Z,54.40
2019-06-10T17:23:52.254Z,54.70
2019-06-10T17:26:27.217Z,54.70
2019-06-10T17:28:52.910Z,54.20
2019-06-10T17:31:25.705Z,53.50
2019-06-10T17:33:54.713Z,53.30
2019-06-10T17:36:27.965Z,53.70
2019-06-10T17:38:56.846Z,54.10
2019-06-10T17:41:30.280Z,54.10
2019-06-10T17:44:02.518Z,54.20
2019-06-10T17:46:34.940Z,54.00
2019-06-10T17:49:05.102Z,53.60
2019-06-10T17:51:35.729Z,53.20
2019-06-10T17:54:06.376Z,52.60
2019-06-10T17:56:36.550Z,52.80
2019-06-10T17:59:06.650Z,52.60
2019-06-10T18:01:36.762Z,52.40
2019-06-10T18:04:06.867Z,51.80
2019-06-10T18:06:37.087Z,51.90
2019-06-10T18:09:08.200Z,52.20
2019-06-10T18:11:38.359Z,52.10
2019-06-10T18:14:12.237Z,52.10
2019-06-10T18:16:42.759Z,52.60
2019-06-10T18:19:13.016Z,52.60
2019-06-10T18:21:43.110Z,52.20
2019-06-10T18:24:13.160Z,52.20
2019-06-10T18:26:43.391Z,52.40
2019-06-10T18:29:13.487Z,52.30
2019-06-10T18:31:43.493Z,52.30
2019-06-10T18:34:13.618Z,52.40
2019-06-10T18:36:43.850Z,52.40
2019-06-10T18:39:14.006Z,52.30
2019-06-10T18:41:44.275Z,52.10
2019-06-10T18:44:22.878Z,52.20
2019-06-10T18:46:52.267Z,51.90
2019-06-10T18:49:22.715Z,52.20
2019-06-10T18:51:55.170Z,52.20
2019-06-10T18:54:25.316Z,52.20
2019-06-10T18:56:55.373Z,52.30
2019-06-10T18:59:25.457Z,52.10
2019-06-10T19:01:55.613Z,52.30
2019-06-10T19:04:25.631Z,51.70
2019-06-10T19:07:15.055Z,51.80
2019-06-10T19:09:48.013Z,51.50
2019-06-10T19:12:17.203Z,51.60
2019-06-10T19:14:47.248Z,51.20
2019-06-10T19:17:17.578Z,51.40
2019-06-10T19:19:48.807Z,51.90
2019-06-10T19:22:18.975Z,51.60
2019-06-10T19:24:49.223Z,51.20
2019-06-10T19:27:19.306Z,50.80
2019-06-10T19:29:51.312Z,50.50
2019-06-10T19:32:21.193Z,50.10
2019-06-10T19:34:52.118Z,49.90
2019-06-10T19:37:22.575Z,50.10
2019-06-10T19:39:54.104Z,50.00
2019-06-10T19:42:25.626Z,50.40
2019-06-10T19:44:58.470Z,50.50
2019-06-10T19:47:28.631Z,50.70
2019-06-10T19:49:58.869Z,51.00
2019-06-10T19:52:29.298Z,51.60
2019-06-10T19:54:59.411Z,51.90
2019-06-10T19:57:29.498Z,51.40
2019-06-10T20:00:10.593Z,54.30
2019-06-10T20:02:32.993Z,53.10
2019-06-10T20:05:05.168Z,52.80
2019-06-10T20:07:35.840Z,51.80
2019-06-10T20:10:07.547Z,51.20
2019-06-10T20:12:38.439Z,51.40
2019-06-10T20:15:10.605Z,51.50
2019-06-10T20:17:41.632Z,51.60
2019-06-10T20:20:12.752Z,52.10
2019-06-10T20:22:44.002Z,52.30
2019-06-10T20:25:16.092Z,51.10
2019-06-10T20:27:46.329Z,51.30
2019-06-10T20:30:25.144Z,51.50
2019-06-10T20:32:52.062Z,51.40
2019-06-10T20:35:23.138Z,50.90
2019-06-10T20:37:54.269Z,50.80
2019-06-10T20:40:24.330Z,49.70
2019-06-10T20:42:54.477Z,49.90
2019-06-10T20:45:24.547Z,49.90
2019-06-10T20:47:54.763Z,50.60
2019-06-10T20:50:24.853Z,49.90
2019-06-10T20:52:54.955Z,49.50
2019-06-10T20:55:40.004Z,49.70
2019-06-10T20:58:03.547Z,49.30
2019-06-10T21:00:37.232Z,49.50
2019-06-10T21:03:07.905Z,49.40
2019-06-10T21:05:39.423Z,49.40
2019-06-10T21:08:12.129Z,48.80
2019-06-10T21:10:45.067Z,48.70
2019-06-10T21:13:13.409Z,48.80
2019-06-10T21:15:47.508Z,49.10
2019-06-10T21:18:15.342Z,49.50
2019-06-10T21:20:49.219Z,50.00
2019-06-10T21:23:17.570Z,49.80
2019-06-10T21:25:49.443Z,49.80
2019-06-10T21:28:19.645Z,50.00
2019-06-10T21:30:54.880Z,49.60
2019-06-10T21:33:23.451Z,48.90
2019-06-10T21:35:54.847Z,48.90
2019-06-10T21:38:25.201Z,48.50
2019-06-10T21:40:55.229Z,49.20
2019-06-10T21:43:25.294Z,49.70
2019-06-10T21:45:57.797Z,49.10
2019-06-10T21:48:27.098Z,49.00
2019-06-10T21:50:57.219Z,49.70
2019-06-10T21:53:27.303Z,49.10
2019-06-10T21:55:57.406Z,49.40
2019-06-10T21:58:27.629Z,49.70
2019-06-10T22:01:11.602Z,49.80
2019-06-10T22:03:32.262Z,49.30
2019-06-10T22:06:02.370Z,49.70
2019-06-10T22:08:33.394Z,50.50
2019-06-10T22:11:03.762Z,49.90
2019-06-10T22:13:33.811Z,49.60
2019-06-10T22:16:03.963Z,49.50
2019-06-10T22:18:34.154Z,49.10
2019-06-10T22:21:04.234Z,49.30
2019-06-10T22:23:34.235Z,49.10
2019-06-10T22:26:04.677Z,49.40
2019-06-10T22:28:34.594Z,49.20
2019-06-10T22:31:19.058Z,49.20
2019-06-10T22:33:36.251Z,49.10
2019-06-10T22:36:07.798Z,49.10
2019-06-10T22:38:37.933Z,48.80
2019-06-10T22:41:07.956Z,49.10
2019-06-10T22:43:38.343Z,49.20
2019-06-10T22:46:08.308Z,49.40
2019-06-10T22:48:42.345Z,49.40
2019-06-10T22:51:12.321Z,49.50
2019-06-10T22:53:42.643Z,49.80
2019-06-10T22:56:12.742Z,49.50
2019-06-10T22:58:42.855Z,49.30
2019-06-10T23:01:12.915Z,49.50
2019-06-10T23:03:42.954Z,49.70
2019-06-10T23:06:13.071Z,49.40
2019-06-10T23:08:43.784Z,49.20
2019-06-10T23:11:14.118Z,48.90
2019-06-10T23:13:44.207Z,48.40
2019-06-10T23:16:14.331Z,48.40
2019-06-10T23:18:44.383Z,49.00
2019-06-10T23:21:14.431Z,48.00
2019-06-10T23:23:44.482Z,47.20
2019-06-10T23:26:14.426Z,47.30
2019-06-10T23:28:44.623Z,47.50
2019-06-10T23:31:14.639Z,46.30
2019-06-10T23:33:44.819Z,46.00
2019-06-10T23:36:14.907Z,45.80
2019-06-10T23:38:44.964Z,46.20
2019-06-10T23:41:16.491Z,45.70
2019-06-10T23:43:46.438Z,46.30
2019-06-10T23:46:16.482Z,46.40
2019-06-10T23:48:46.535Z,46.30
2019-06-10T23:51:16.791Z,46.30
2019-06-10T23:53:46.908Z,46.80
2019-06-10T23:56:17.027Z,46.90
2019-06-10T23:58:47.291Z,47.40
